createdAt,value
2019-04-27T00:01:45.385Z,99.90
2019-04-27T00:04:34.380Z,99.90
2019-04-27T00:07:26.970Z,99.90
2019-04-27T00:10:03.340Z,99.90
2019-04-27T00:12:34.589Z,99.90
2019-04-27T00:15:04.876Z,99.90
2019-04-27T00:17:56.739Z,99.90
2019-04-27T00:20:53.550Z,99.90
2019-04-27T00:23:24.657Z,99.90
2019-04-27T00:25:54.670Z,99.90
2019-04-27T00:28:25.337Z,99.90
2019-04-27T00:30:55.849Z,99.90
2019-04-27T00:33:26.035Z,99.90
2019-04-27T00:36:07.173Z,99.90
2019-04-27T00:38:53.457Z,99.90
2019-04-27T00:41:24.920Z,99.90
2019-04-27T00:43:54.891Z,99.90
2019-04-27T00:46:24.796Z,99.90
2019-04-27T00:48:54.714Z,99.90
2019-04-27T00:51:24.550Z,99.90
2019-04-27T00:53:55.105Z,99.90
2019-04-27T00:56:40.447Z,99.90
2019-04-27T00:59:44.566Z,99.90
2019-04-27T01:02:24.353Z,99.90
2019-04-27T01:04:54.494Z,99.90
2019-04-27T01:07:25.032Z,99.90
2019-04-27T01:09:55.101Z,99.90
2019-04-27T01:12:25.182Z,99.90
2019-04-27T01:14:54.924Z,99.90
2019-04-27T01:17:24.687Z,99.90
2019-04-27T01:19:54.442Z,99.90
2019-04-27T01:22:24.337Z,99.90
2019-04-27T01:24:54.078Z,99.90
2019-04-27T01:27:41.935Z,99.90
2019-04-27T01:30:22.385Z,99.90
2019-04-27T01:32:52.358Z,99.90
2019-04-27T01:35:22.525Z,99.90
2019-04-27T01:37:52.273Z,99.90
2019-04-27T01:40:22.101Z,99.90
2019-04-27T01:42:51.917Z,99.90
2019-04-27T01:45:21.813Z,99.90
2019-04-27T01:47:51.561Z,99.90
2019-04-27T01:50:21.462Z,99.90
2019-04-27T01:52:51.290Z,99.90
2019-04-27T01:55:21.102Z,99.90
2019-04-27T01:57:50.950Z,99.90
2019-04-27T02:00:37.118Z,99.90
2019-04-27T02:03:08.711Z,99.90
2019-04-27T02:05:42.450Z,99.90
2019-04-27T02:08:12.363Z,99.90
2019-04-27T02:10:42.346Z,99.90
2019-04-27T02:13:12.314Z,99.90
2019-04-27T02:15:43.439Z,99.90
2019-04-27T02:18:14.543Z,99.90
2019-04-27T02:20:44.624Z,99.90
2019-04-27T02:23:15.273Z,99.90
2019-04-27T02:25:46.275Z,99.90
2019-04-27T02:28:32.345Z,99.90
2019-04-27T02:31:20.358Z,99.90
2019-04-27T02:34:15.628Z,99.90
2019-04-27T02:36:45.559Z,99.90
2019-04-27T02:39:15.505Z,99.90
2019-04-27T02:41:45.711Z,99.90
2019-04-27T02:44:26.587Z,99.90
2019-04-27T02:46:56.488Z,99.90
2019-04-27T02:49:26.374Z,99.90
2019-04-27T02:52:19.870Z,99.90
2019-04-27T02:54:50.628Z,99.90
2019-04-27T02:57:21.058Z,99.90
2019-04-27T02:59:51.043Z,99.90
2019-04-27T03:02:26.814Z,99.90
2019-04-27T03:04:56.732Z,99.90
2019-04-27T03:07:26.533Z,99.90
2019-04-27T03:09:59.636Z,99.90
2019-04-27T03:12:41.989Z,99.90
2019-04-27T03:15:32.652Z,99.90
2019-04-27T03:18:29.714Z,99.90
2019-04-27T03:21:13.216Z,99.90
2019-04-27T03:23:43.631Z,99.90
2019-04-27T03:26:44.919Z,99.90
2019-04-27T03:29:15.155Z,99.90
2019-04-27T03:31:47.539Z,99.90
2019-04-27T03:34:17.718Z,99.90
2019-04-27T03:36:49.293Z,99.90
2019-04-27T03:39:20.159Z,99.90
2019-04-27T03:41:52.914Z,99.90
2019-04-27T03:44:21.919Z,99.90
2019-04-27T03:46:51.805Z,99.90
2019-04-27T03:49:35.075Z,99.90
2019-04-27T03:52:09.657Z,99.90
2019-04-27T03:54:45.501Z,99.90
2019-04-27T03:57:29.737Z,99.90
2019-04-27T04:00:01.728Z,99.90
2019-04-27T04:02:33.307Z,99.90
2019-04-27T04:05:03.207Z,99.90
2019-04-27T04:07:33.109Z,99.90
2019-04-27T04:10:03.286Z,99.90
2019-04-27T04:12:40.319Z,99.90
2019-04-27T04:15:13.701Z,99.90
2019-04-27T04:17:43.474Z,99.90
2019-04-27T04:20:13.615Z,99.90
2019-04-27T04:22:43.402Z,99.90
2019-04-27T04:25:14.787Z,99.90
2019-04-27T04:27:45.046Z,99.90
2019-04-27T04:30:15.079Z,99.90
2019-04-27T04:32:45.127Z,99.90
2019-04-27T04:35:21.201Z,99.90
2019-04-27T04:37:52.780Z,99.90
2019-04-27T04:40:30.930Z,99.90
2019-04-27T04:43:20.177Z,99.90
2019-04-27T04:46:12.326Z,99.90
2019-04-27T04:48:40.856Z,99.90
2019-04-27T04:51:10.678Z,99.90
2019-04-27T04:53:40.759Z,99.90
2019-04-27T04:56:10.821Z,99.90
2019-04-27T04:58:41.492Z,99.90
2019-04-27T05:01:11.573Z,99.90
2019-04-27T05:03:41.319Z,99.90
2019-04-27T05:06:11.083Z,99.90
2019-04-27T05:08:40.827Z,99.90
2019-04-27T05:11:10.662Z,99.90
2019-04-27T05:13:40.411Z,99.90
2019-04-27T05:16:10.156Z,99.90
2019-04-27T05:18:39.992Z,99.90
2019-04-27T05:21:19.290Z,99.90
2019-04-27T05:23:49.118Z,99.90
2019-04-27T05:26:19.013Z,99.90
2019-04-27T05:28:50.783Z,99.90
2019-04-27T05:31:20.540Z,99.90
2019-04-27T05:33:50.287Z,99.90
2019-04-27T05:36:20.187Z,99.90
2019-04-27T05:38:50.739Z,99.90
2019-04-27T05:41:20.638Z,99.90
2019-04-27T05:44:12.662Z,99.90
2019-04-27T05:46:58.794Z,99.90
2019-04-27T05:49:41.166Z,99.90
2019-04-27T05:52:26.251Z,99.90
2019-04-27T05:54:56.352Z,99.90
2019-04-27T05:57:28.788Z,99.90
2019-04-27T06:00:01.899Z,99.90
2019-04-27T06:02:30.539Z,99.90
2019-04-27T06:05:00.465Z,99.90
2019-04-27T06:07:31.394Z,99.90
2019-04-27T06:10:01.605Z,99.90
2019-04-27T06:12:31.426Z,99.90
2019-04-27T06:15:01.323Z,99.90
2019-04-27T06:17:31.440Z,99.90
2019-04-27T06:20:01.191Z,99.90
2019-04-27T06:22:31.399Z,99.90
2019-04-27T06:25:01.157Z,99.90
2019-04-27T06:27:31.117Z,99.90
2019-04-27T06:30:04.812Z,99.90
2019-04-27T06:32:35.071Z,99.90
2019-04-27T06:35:06.311Z,99.90
2019-04-27T06:37:36.243Z,99.90
2019-04-27T06:40:06.650Z,99.90
2019-04-27T06:42:36.480Z,99.90
2019-04-27T06:45:06.681Z,99.90
2019-04-27T06:47:39.092Z,99.90
2019-04-27T06:50:08.646Z,99.90
2019-04-27T06:52:38.997Z,99.90
2019-04-27T06:55:09.507Z,99.90
2019-04-27T06:57:41.178Z,99.90
2019-04-27T07:00:11.480Z,99.90
2019-04-27T07:02:41.309Z,99.90
2019-04-27T07:05:11.343Z,99.90
2019-04-27T07:07:41.185Z,99.90
2019-04-27T07:10:11.035Z,99.90
2019-04-27T07:12:41.069Z,99.90
2019-04-27T07:15:11.155Z,99.90
2019-04-27T07:17:40.975Z,99.90
2019-04-27T07:20:10.807Z,99.90
2019-04-27T07:22:40.689Z,99.90
2019-04-27T07:25:11.099Z,99.90
2019-04-27T07:27:40.931Z,99.90
2019-04-27T07:30:11.923Z,99.90
2019-04-27T07:32:42.019Z,99.90
2019-04-27T07:35:12.014Z,99.90
2019-04-27T07:37:41.758Z,99.90
2019-04-27T07:40:11.871Z,99.90
2019-04-27T07:42:45.999Z,99.90
2019-04-27T07:45:23.965Z,99.90
2019-04-27T07:47:54.029Z,99.90
2019-04-27T07:50:23.856Z,99.90
2019-04-27T07:52:53.858Z,99.90
2019-04-27T07:55:23.917Z,99.90
2019-04-27T07:57:53.733Z,99.90
2019-04-27T08:00:23.748Z,99.90
2019-04-27T08:02:53.490Z,99.90
2019-04-27T08:05:23.413Z,99.90
2019-04-27T08:07:53.239Z,99.90
2019-04-27T08:10:23.143Z,99.90
2019-04-27T08:12:52.952Z,99.90
2019-04-27T08:15:22.787Z,99.90
2019-04-27T08:17:52.603Z,99.90
2019-04-27T08:20:22.431Z,99.90
2019-04-27T08:22:52.186Z,99.90
2019-04-27T08:25:23.746Z,99.90
2019-04-27T08:28:11.939Z,99.90
2019-04-27T08:30:58.578Z,99.90
2019-04-27T08:33:29.054Z,99.90
2019-04-27T08:35:59.172Z,99.90
2019-04-27T08:38:29.352Z,99.90
2019-04-27T08:40:59.355Z,99.90
2019-04-27T08:43:29.352Z,99.90
2019-04-27T08:46:00.375Z,99.90
2019-04-27T08:48:34.782Z,99.90
2019-04-27T08:51:02.223Z,99.90
2019-04-27T08:53:31.970Z,99.90
2019-04-27T08:56:01.803Z,99.90
2019-04-27T08:58:36.205Z,99.90
2019-04-27T09:01:08.494Z,99.90
2019-04-27T09:03:39.474Z,99.90
2019-04-27T09:06:11.415Z,99.90
2019-04-27T09:08:47.022Z,99.90
2019-04-27T09:11:41.861Z,99.90
2019-04-27T09:14:25.272Z,99.90
2019-04-27T09:17:03.056Z,99.90
2019-04-27T09:20:01.607Z,99.90
2019-04-27T09:22:31.365Z,99.90
2019-04-27T09:25:01.288Z,99.90
2019-04-27T09:27:31.193Z,98.20
2019-04-27T09:30:01.030Z,93.80
2019-04-27T09:32:32.333Z,93.20
2019-04-27T09:35:02.159Z,94.00
2019-04-27T09:37:32.064Z,90.60
2019-04-27T09:40:01.911Z,89.60
2019-04-27T09:42:31.836Z,86.00
2019-04-27T09:45:01.701Z,76.70
2019-04-27T09:47:31.634Z,77.20
2019-04-27T09:50:01.511Z,80.40
2019-04-27T09:52:31.762Z,77.50
2019-04-27T09:55:01.666Z,77.00
2019-04-27T09:57:32.607Z,88.50
2019-04-27T10:00:02.469Z,82.40
2019-04-27T10:02:33.650Z,87.10
2019-04-27T10:05:05.902Z,93.00
2019-04-27T10:07:36.707Z,91.20
2019-04-27T10:10:08.778Z,85.50
2019-04-27T10:12:38.957Z,88.80
2019-04-27T10:15:10.338Z,88.10
2019-04-27T10:17:40.711Z,91.90
2019-04-27T10:20:10.935Z,81.80
2019-04-27T10:22:43.458Z,88.90
2019-04-27T10:25:23.330Z,87.70
2019-04-27T10:27:59.240Z,87.30
2019-04-27T10:30:30.354Z,87.70
2019-04-27T10:33:00.266Z,84.50
2019-04-27T10:35:30.157Z,81.90
2019-04-27T10:37:59.919Z,80.00
2019-04-27T10:40:29.828Z,76.20
2019-04-27T10:42:59.599Z,76.10
2019-04-27T10:45:29.827Z,72.60
2019-04-27T10:47:59.590Z,80.80
2019-04-27T10:50:29.490Z,85.60
2019-04-27T10:52:59.510Z,94.60
2019-04-27T10:55:29.720Z,98.30
2019-04-27T10:57:59.559Z,99.90
2019-04-27T11:00:37.659Z,99.90
2019-04-27T11:03:08.632Z,99.90
2019-04-27T11:06:00.399Z,99.90
2019-04-27T11:08:30.296Z,99.90
2019-04-27T11:11:00.189Z,99.90
2019-04-27T11:13:30.115Z,99.90
2019-04-27T11:15:59.943Z,99.90
2019-04-27T11:18:29.775Z,96.50
2019-04-27T11:20:59.613Z,88.50
2019-04-27T11:23:29.385Z,80.80
2019-04-27T11:26:02.366Z,74.00
2019-04-27T11:28:32.112Z,72.80
2019-04-27T11:31:02.023Z,76.70
2019-04-27T11:33:31.871Z,83.60
2019-04-27T11:36:19.744Z,90.00
2019-04-27T11:38:50.490Z,92.90
2019-04-27T11:41:20.332Z,99.90
2019-04-27T11:43:51.157Z,99.90
2019-04-27T11:46:21.062Z,99.90
2019-04-27T11:48:51.303Z,99.90
2019-04-27T11:51:21.214Z,99.90
2019-04-27T11:53:52.381Z,99.90
2019-04-27T11:56:22.295Z,96.60
2019-04-27T11:58:52.223Z,91.30
2019-04-27T12:01:22.137Z,90.20
2019-04-27T12:03:52.055Z,87.40
2019-04-27T12:06:22.225Z,93.30
2019-04-27T12:08:52.155Z,98.90
2019-04-27T12:11:21.995Z,99.90
2019-04-27T12:13:51.827Z,99.90
2019-04-27T12:16:21.721Z,99.90
2019-04-27T12:18:51.496Z,99.90
2019-04-27T12:21:21.384Z,99.90
2019-04-27T12:23:51.142Z,99.90
2019-04-27T12:26:52.286Z,99.90
2019-04-27T12:29:24.206Z,99.90
2019-04-27T12:31:56.079Z,99.90
2019-04-27T12:34:27.886Z,99.90
2019-04-27T12:36:57.446Z,99.90
2019-04-27T12:39:27.209Z,99.90
2019-04-27T12:41:57.139Z,99.90
2019-04-27T12:44:26.980Z,99.90
2019-04-27T12:47:02.290Z,99.90
2019-04-27T12:49:28.367Z,99.90
2019-04-27T12:51:58.388Z,99.90
2019-04-27T12:54:37.309Z,99.90
2019-04-27T12:57:23.499Z,99.90
2019-04-27T12:59:59.214Z,99.90
2019-04-27T13:02:31.594Z,99.90
2019-04-27T13:05:01.517Z,99.90
2019-04-27T13:07:31.366Z,99.90
2019-04-27T13:10:02.439Z,99.90
2019-04-27T13:12:32.333Z,99.90
2019-04-27T13:15:02.280Z,99.90
2019-04-27T13:17:32.138Z,99.90
2019-04-27T13:20:02.060Z,99.90
2019-04-27T13:25:03.015Z,99.90
2019-04-27T13:27:32.911Z,99.90
2019-04-27T13:30:04.861Z,99.90
2019-04-27T13:32:36.383Z,99.90
2019-04-27T13:35:07.240Z,99.90
2019-04-27T13:37:41.956Z,99.90
2019-04-27T13:40:13.804Z,99.90
2019-04-27T13:42:53.759Z,99.90
2019-04-27T13:45:47.803Z,99.90
2019-04-27T13:48:36.451Z,99.90
2019-04-27T13:51:10.181Z,99.90
2019-04-27T13:53:40.011Z,99.90
2019-04-27T13:56:17.390Z,99.90
2019-04-27T13:58:47.677Z,99.90
2019-04-27T14:01:17.533Z,99.90
2019-04-27T14:03:47.290Z,99.90
2019-04-27T14:06:17.203Z,99.90
2019-04-27T14:08:47.319Z,99.90
2019-04-27T14:11:18.455Z,99.90
2019-04-27T14:13:48.529Z,99.90
2019-04-27T14:16:18.933Z,99.90
2019-04-27T14:18:49.178Z,99.90
2019-04-27T14:21:19.085Z,99.90
2019-04-27T14:23:48.908Z,99.90
2019-04-27T14:26:40.198Z,99.90
2019-04-27T14:29:11.809Z,99.90
2019-04-27T14:31:41.848Z,99.90
2019-04-27T14:34:12.782Z,99.90
2019-04-27T14:36:45.034Z,99.90
2019-04-27T14:39:18.686Z,99.90
2019-04-27T14:41:50.076Z,99.90
2019-04-27T14:44:22.354Z,99.90
2019-04-27T14:46:52.571Z,99.90
2019-04-27T14:49:22.696Z,99.90
2019-04-27T14:51:52.794Z,99.90
2019-04-27T14:54:23.017Z,99.90
2019-04-27T14:56:53.300Z,99.90
2019-04-27T14:59:23.779Z,99.90
2019-04-27T15:01:53.587Z,99.90
2019-04-27T15:04:23.404Z,99.90
2019-04-27T15:06:53.183Z,99.90
2019-04-27T15:09:24.031Z,99.90
2019-04-27T15:11:54.976Z,99.90
2019-04-27T15:14:26.724Z,99.90
2019-04-27T15:16:56.635Z,99.90
2019-04-27T15:19:32.675Z,99.90
2019-04-27T15:22:02.678Z,99.90
2019-04-27T15:24:32.669Z,99.90
2019-04-27T15:27:02.490Z,99.90
2019-04-27T15:29:33.103Z,99.90
2019-04-27T15:32:04.993Z,99.90
2019-04-27T15:34:44.541Z,99.90
2019-04-27T15:37:28.117Z,99.90
2019-04-27T15:40:36.489Z,99.90
2019-04-27T15:43:22.908Z,99.90
2019-04-27T15:45:53.393Z,99.90
2019-04-27T15:48:25.109Z,99.90
2019-04-27T15:51:00.898Z,99.90
2019-04-27T15:53:28.414Z,99.90
2019-04-27T15:56:01.746Z,99.90
2019-04-27T15:58:31.195Z,99.90
2019-04-27T16:01:05.932Z,99.90
2019-04-27T16:03:33.190Z,99.90
2019-04-27T16:06:07.503Z,99.90
2019-04-27T16:08:38.280Z,99.90
2019-04-27T16:11:11.719Z,99.90
2019-04-27T16:13:40.307Z,99.90
2019-04-27T16:16:10.505Z,99.90
2019-04-27T16:19:03.598Z,99.90
2019-04-27T16:21:39.808Z,99.90
2019-04-27T16:24:12.532Z,99.90
2019-04-27T16:26:46.397Z,99.90
2019-04-27T16:29:16.407Z,99.90
2019-04-27T16:31:48.064Z,99.90
2019-04-27T16:34:18.575Z,99.90
2019-04-27T16:36:48.643Z,99.90
2019-04-27T16:39:20.382Z,99.90
2019-04-27T16:41:50.776Z,99.90
2019-04-27T16:44:20.701Z,99.90
2019-04-27T16:46:50.735Z,99.90
2019-04-27T16:49:22.331Z,99.90
2019-04-27T16:51:52.467Z,99.90
2019-04-27T16:54:22.702Z,99.90
2019-04-27T16:57:02.217Z,99.90
2019-04-27T16:59:42.715Z,99.90
2019-04-27T17:01:56.075Z,99.90
2019-04-27T17:04:26.223Z,99.90
2019-04-27T17:06:56.377Z,99.90
2019-04-27T17:09:26.470Z,99.90
2019-04-27T17:11:56.722Z,99.90
2019-04-27T17:14:37.034Z,99.90
2019-04-27T17:17:28.082Z,99.90
2019-04-27T17:20:00.534Z,99.90
2019-04-27T17:22:30.368Z,99.90
2019-04-27T17:25:00.302Z,99.90
2019-04-27T17:27:49.262Z,99.90
2019-04-27T17:30:20.026Z,99.90
2019-04-27T17:33:11.781Z,99.90
2019-04-27T17:35:42.590Z,99.90
2019-04-27T17:38:12.428Z,99.90
2019-04-27T17:40:42.363Z,99.90
2019-04-27T17:43:12.200Z,99.90
2019-04-27T17:45:42.090Z,99.90
2019-04-27T17:48:14.219Z,99.90
2019-04-27T17:50:43.770Z,99.90
2019-04-27T17:53:13.875Z,99.90
2019-04-27T17:55:47.734Z,99.90
2019-04-27T17:58:18.044Z,99.90
2019-04-27T18:00:48.168Z,99.90
2019-04-27T18:03:21.111Z,99.90
2019-04-27T18:05:51.915Z,99.90
2019-04-27T18:08:25.056Z,99.90
2019-04-27T18:11:00.197Z,99.90
2019-04-27T18:13:28.753Z,99.90
2019-04-27T18:16:01.135Z,99.90
2019-04-27T18:18:51.108Z,99.90
2019-04-27T18:21:26.010Z,99.90
2019-04-27T18:24:01.543Z,99.90
2019-04-27T18:27:04.373Z,99.90
2019-04-27T18:29:35.124Z,99.90
2019-04-27T18:32:05.253Z,99.90
2019-04-27T18:34:35.143Z,99.90
2019-04-27T18:37:05.402Z,99.90
2019-04-27T18:39:35.610Z,99.90
2019-04-27T18:42:06.529Z,99.90
2019-04-27T18:44:39.382Z,99.90
2019-04-27T18:47:12.698Z,99.90
2019-04-27T18:50:11.154Z,99.90
2019-04-27T18:52:47.769Z,99.90
2019-04-27T18:55:18.548Z,99.90
2019-04-27T18:57:50.948Z,99.90
2019-04-27T19:00:21.218Z,99.90
2019-04-27T19:02:51.307Z,99.90
2019-04-27T19:05:23.614Z,99.90
2019-04-27T19:07:53.439Z,99.90
2019-04-27T19:10:23.446Z,99.90
2019-04-27T19:12:53.903Z,99.90
2019-04-27T19:15:23.702Z,99.90
2019-04-27T19:17:55.217Z,99.90
2019-04-27T19:20:25.130Z,99.90
2019-04-27T19:22:55.895Z,99.90
2019-04-27T19:25:34.595Z,99.90
2019-04-27T19:28:34.044Z,99.90
2019-04-27T19:31:08.291Z,99.90
2019-04-27T19:33:39.625Z,99.90
2019-04-27T19:36:10.183Z,99.90
2019-04-27T19:38:41.366Z,99.90
2019-04-27T19:41:12.511Z,99.90
2019-04-27T19:43:43.491Z,99.90
2019-04-27T19:46:16.901Z,99.90
2019-04-27T19:48:49.836Z,99.90
2019-04-27T19:51:21.852Z,99.90
2019-04-27T19:53:51.953Z,99.90
2019-04-27T19:56:22.657Z,99.90
2019-04-27T19:58:55.447Z,99.90
2019-04-27T20:01:34.911Z,99.90
2019-04-27T20:04:10.487Z,99.90
2019-04-27T20:06:40.336Z,99.90
2019-04-27T20:09:22.003Z,99.90
2019-04-27T20:11:52.547Z,99.90
2019-04-27T20:14:22.370Z,99.90
2019-04-27T20:16:59.355Z,99.90
2019-04-27T20:19:31.500Z,99.90
2019-04-27T20:22:01.634Z,99.90
2019-04-27T20:24:33.521Z,99.90
2019-04-27T20:27:10.906Z,99.90
2019-04-27T20:29:40.866Z,99.90
2019-04-27T20:32:14.696Z,99.90
2019-04-27T20:34:44.467Z,99.90
2019-04-27T20:37:15.802Z,99.90
2019-04-27T20:39:56.084Z,99.90
2019-04-27T20:42:31.490Z,99.90
2019-04-27T20:45:02.332Z,99.90
2019-04-27T20:47:34.162Z,99.90
2019-04-27T20:50:04.473Z,99.90
2019-04-27T20:52:54.161Z,99.90
2019-04-27T20:55:24.300Z,99.90
2019-04-27T20:58:01.882Z,99.90
2019-04-27T21:00:26.346Z,99.90
2019-04-27T21:03:15.842Z,99.90
2019-04-27T21:06:07.762Z,99.90
2019-04-27T21:08:38.744Z,99.90
2019-04-27T21:11:08.667Z,99.90
2019-04-27T21:13:38.602Z,99.90
2019-04-27T21:16:08.699Z,99.90
2019-04-27T21:18:38.547Z,99.90
2019-04-27T21:21:11.385Z,99.90
2019-04-27T21:23:43.321Z,99.90
2019-04-27T21:26:13.133Z,99.90
2019-04-27T21:28:43.500Z,99.90
2019-04-27T21:31:15.049Z,99.90
2019-04-27T21:33:45.586Z,99.90
2019-04-27T21:36:15.323Z,99.90
2019-04-27T21:38:45.072Z,99.90
2019-04-27T21:41:14.962Z,99.90
2019-04-27T21:43:44.810Z,99.90
2019-04-27T21:46:14.959Z,99.90
2019-04-27T21:48:44.853Z,99.90
2019-04-27T21:51:14.675Z,99.90
2019-04-27T21:54:02.245Z,99.90
2019-04-27T21:56:32.049Z,99.90
2019-04-27T21:59:02.766Z,99.90
2019-04-27T22:01:34.267Z,99.90
2019-04-27T22:04:05.866Z,99.90
2019-04-27T22:06:35.783Z,99.90
2019-04-27T22:09:10.708Z,99.90
2019-04-27T22:11:42.214Z,99.90
2019-04-27T22:14:12.106Z,99.90
2019-04-27T22:16:42.006Z,99.90
2019-04-27T22:19:12.181Z,99.90
2019-04-27T22:21:42.136Z,99.90
2019-04-27T22:24:29.504Z,99.90
2019-04-27T22:26:59.321Z,99.90
2019-04-27T22:29:29.055Z,99.90
2019-04-27T22:31:59.205Z,99.90
2019-04-27T22:34:29.011Z,99.90
2019-04-27T22:37:00.961Z,99.90
2019-04-27T22:39:39.819Z,99.90
2019-04-27T22:42:23.476Z,99.90
2019-04-27T22:45:01.264Z,99.90
2019-04-27T22:47:32.259Z,99.90
2019-04-27T22:50:02.410Z,99.90
2019-04-27T22:52:32.297Z,99.90
2019-04-27T22:55:02.209Z,99.90
2019-04-27T22:57:37.959Z,99.90
2019-04-27T23:00:26.490Z,99.90
2019-04-27T23:03:00.825Z,99.90
2019-04-27T23:05:31.950Z,99.90
2019-04-27T23:08:02.022Z,99.90
2019-04-27T23:10:31.907Z,99.90
2019-04-27T23:13:01.983Z,99.90
2019-04-27T23:15:38.106Z,99.90
2019-04-27T23:18:07.915Z,99.90
2019-04-27T23:20:37.744Z,99.90
2019-04-27T23:23:07.737Z,99.90
2019-04-27T23:25:37.750Z,99.90
2019-04-27T23:28:07.577Z,99.90
2019-04-27T23:30:47.666Z,99.90
2019-04-27T23:33:17.425Z,99.90
2019-04-27T23:35:47.239Z,99.90
2019-04-27T23:38:17.996Z,99.90
2019-04-27T23:40:48.262Z,99.90
2019-04-27T23:43:20.216Z,99.90
2019-04-27T23:45:51.582Z,99.90
2019-04-27T23:48:22.706Z,99.90
2019-04-27T23:50:56.326Z,99.90
2019-04-27T23:53:29.294Z,99.90
2019-04-27T23:55:59.143Z,99.90
2019-04-27T23:58:28.915Z,99.90
